createdAt,value
2023-01-23T00:04:32.333Z,59.83
2023-01-23T00:09:34.010Z,59.19
2023-01-23T00:14:35.719Z,59.82
2023-01-23T00:19:37.520Z,61.24
2023-01-23T00:24:39.134Z,58.66
2023-01-23T00:29:40.818Z,59.39
2023-01-23T00:34:42.504Z,60.01
2023-01-23T00:39:45.530Z,60.17
2023-01-23T00:44:47.259Z,61.65
2023-01-23T00:49:48.856Z,62.02
2023-01-23T00:54:50.604Z,59.65
2023-01-23T00:59:52.308Z,61.55
2023-01-23T01:04:53.888Z,61.21
2023-01-23T01:09:55.542Z,62.00
2023-01-23T01:14:57.243Z,62.06
2023-01-23T01:19:58.917Z,62.08
2023-01-23T01:25:00.543Z,62.56
2023-01-23T01:30:02.368Z,61.45
2023-01-23T01:35:07.048Z,60.95
2023-01-23T01:40:13.592Z,62.06
2023-01-23T01:45:52.705Z,61.33
2023-01-23T01:50:54.585Z,60.98
2023-01-23T01:55:57.543Z,60.30
2023-01-23T02:00:59.219Z,61.09
2023-01-23T02:06:01.019Z,61.52
2023-01-23T02:11:03.537Z,61.19
2023-01-23T02:16:09.515Z,61.40
2023-01-23T02:21:13.745Z,59.57
2023-01-23T02:26:22.314Z,59.55
2023-01-23T02:31:24.154Z,58.03
2023-01-23T02:36:29.818Z,59.88
2023-01-23T02:41:43.926Z,57.87
2023-01-23T02:46:45.768Z,59.01
2023-01-23T02:51:47.693Z,59.59
2023-01-23T02:56:49.722Z,58.69
2023-01-23T03:01:51.547Z,58.93
2023-01-23T03:06:53.187Z,59.93
2023-01-23T03:11:55.037Z,59.49
2023-01-23T03:16:56.693Z,61.07
2023-01-23T03:21:58.323Z,59.48
2023-01-23T03:27:00.020Z,60.59
2023-01-23T03:32:02.460Z,59.23
2023-01-23T03:37:04.961Z,60.45
2023-01-23T03:42:06.781Z,60.46
2023-01-23T03:47:08.629Z,62.77
2023-01-23T03:52:10.313Z,62.50
2023-01-23T03:57:11.928Z,62.65
2023-01-23T04:02:13.544Z,61.08
2023-01-23T04:07:15.202Z,62.79
2023-01-23T04:12:17.312Z,61.77
2023-01-23T04:17:18.997Z,61.65
2023-01-23T04:22:20.751Z,61.48
2023-01-23T04:27:22.469Z,61.46
2023-01-23T04:32:25.417Z,61.71
2023-01-23T04:37:27.124Z,61.16
2023-01-23T04:42:28.723Z,61.32
2023-01-23T19:07:03.686Z,62.20
2023-01-23T19:12:30.219Z,62.71
2023-01-23T19:18:03.438Z,61.41
2023-01-23T19:23:13.735Z,61.83
2023-01-23T19:28:16.101Z,61.57
2023-01-23T19:33:18.949Z,62.82
2023-01-23T19:38:22.621Z,63.32
2023-01-23T19:43:25.271Z,63.56
2023-01-23T19:48:27.452Z,62.46
2023-01-23T19:53:29.030Z,63.90
2023-01-23T19:58:32.194Z,62.71
2023-01-23T20:03:35.650Z,62.94
2023-01-23T20:08:37.408Z,61.30
2023-01-23T20:13:42.769Z,62.42
2023-01-23T20:18:48.064Z,62.30
2023-01-23T20:23:50.681Z,63.23
2023-01-23T20:28:56.227Z,63.25
2023-01-23T20:33:57.808Z,62.45
2023-01-23T20:38:59.581Z,62.87
2023-01-23T20:44:01.197Z,62.75
2023-01-23T20:49:02.902Z,62.90
2023-01-23T20:54:04.726Z,63.17
2023-01-23T20:59:18.655Z,62.87
2023-01-23T21:04:21.388Z,62.83
2023-01-23T21:09:23.925Z,62.70
2023-01-23T21:14:25.592Z,63.34
2023-01-23T21:19:27.522Z,62.25
2023-01-23T21:24:29.236Z,62.27
2023-01-23T21:29:31.824Z,62.65
2023-01-23T21:34:33.461Z,61.20
2023-01-23T21:39:35.064Z,62.85
2023-01-23T21:44:36.745Z,61.07
2023-01-23T21:49:38.336Z,61.46
2023-01-23T21:54:41.898Z,61.49
2023-01-23T22:00:03.513Z,61.68
2023-01-23T22:05:05.506Z,61.84
2023-01-23T22:10:07.964Z,60.96
2023-01-23T22:15:10.157Z,61.93
2023-01-23T22:20:13.049Z,60.92
2023-01-23T22:25:14.796Z,61.36
2023-01-23T22:30:16.673Z,60.17
2023-01-23T22:35:18.446Z,59.80
2023-01-23T22:40:20.362Z,60.67
2023-01-23T22:45:22.447Z,61.14
2023-01-23T22:50:24.776Z,60.37
2023-01-23T22:55:26.496Z,61.30
2023-01-23T23:00:28.172Z,58.58
2023-01-23T23:05:29.911Z,61.81
2023-01-23T23:10:31.630Z,61.26
2023-01-23T23:15:35.522Z,61.83
2023-01-23T23:20:37.214Z,59.21
2023-01-23T23:25:38.936Z,61.32
2023-01-23T23:30:40.627Z,60.75
2023-01-23T23:35:43.099Z,61.92
2023-01-23T23:40:53.154Z,59.90
2023-01-23T23:45:57.319Z,60.91
2023-01-23T23:51:04.639Z,61.98
2023-01-23T23:56:07.452Z,60.23
